sensor_id;sensor_type;location;lat;lon;timestamp;P1;durP1;ratioP1;P2;durP2;ratioP2
7166;SDS011;3625;51.762;14.320;2023-07-31T00:02:13;4.68;;;4.28;;
7166;SDS011;3625;51.762;14.320;2023-07-31T00:04:41;6.97;;;4.50;;
7166;SDS011;3625;51.762;14.320;2023-07-31T00:07:10;4.70;;;4.30;;
7166;SDS011;3625;51.762;14.320;2023-07-31T00:09:39;5.18;;;4.20;;
7166;SDS011;3625;51.762;14.320;2023-07-31T00:12:08;7.13;;;4.65;;
7166;SDS011;3625;51.762;14.320;2023-07-31T00:14:36;4.85;;;4.40;;
7166;SDS011;3625;51.762;14.320;2023-07-31T00:17:06;4.50;;;4.10;;
7166;SDS011;3625;51.762;14.320;2023-07-31T00:19:35;5.03;;;4.53;;
7166;SDS011;3625;51.762;14.320;2023-07-31T00:22:04;4.78;;;4.13;;
7166;SDS011;3625;51.762;14.320;2023-07-31T00:24:33;4.95;;;4.30;;
7166;SDS011;3625;51.762;14.320;2023-07-31T00:27:01;4.38;;;3.97;;
7166;SDS011;3625;51.762;14.320;2023-07-31T00:29:30;5.07;;;4.20;;
7166;SDS011;3625;51.762;14.320;2023-07-31T00:31:58;5.13;;;4.38;;
7166;SDS011;3625;51.762;14.320;2023-07-31T00:34:28;6.68;;;4.65;;
7166;SDS011;3625;51.762;14.320;2023-07-31T00:36:57;4.57;;;4.18;;
7166;SDS011;3625;51.762;14.320;2023-07-31T00:39:25;6.65;;;4.40;;
7166;SDS011;3625;51.762;14.320;2023-07-31T00:41:56;5.88;;;4.70;;
7166;SDS011;3625;51.762;14.320;2023-07-31T00:44:24;4.35;;;4.00;;
7166;SDS011;3625;51.762;14.320;2023-07-31T00:46:53;11.57;;;4.88;;
7166;SDS011;3625;51.762;14.320;2023-07-31T00:49:24;4.57;;;4.15;;
7166;SDS011;3625;51.762;14.320;2023-07-31T00:51:56;5.43;;;4.00;;
7166;SDS011;3625;51.762;14.320;2023-07-31T00:54:25;5.30;;;4.05;;
7166;SDS011;3625;51.762;14.320;2023-07-31T00:56:56;4.97;;;4.00;;
7166;SDS011;3625;51.762;14.320;2023-07-31T00:59:25;4.60;;;4.20;;
7166;SDS011;3625;51.762;14.320;2023-07-31T01:01:55;4.97;;;3.90;;
7166;SDS011;3625;51.762;14.320;2023-07-31T01:04:26;5.82;;;4.25;;
7166;SDS011;3625;51.762;14.320;2023-07-31T01:06:58;4.32;;;3.95;;
7166;SDS011;3625;51.762;14.320;2023-07-31T01:09:40;4.25;;;3.70;;
7166;SDS011;3625;51.762;14.320;2023-07-31T01:12:24;5.05;;;3.90;;
7166;SDS011;3625;51.762;14.320;2023-07-31T01:15:04;7.38;;;4.63;;
7166;SDS011;3625;51.762;14.320;2023-07-31T01:17:38;5.10;;;3.78;;
7166;SDS011;3625;51.762;14.320;2023-07-31T01:20:08;7.43;;;3.75;;
7166;SDS011;3625;51.762;14.320;2023-07-31T01:22:53;4.82;;;4.20;;
7166;SDS011;3625;51.762;14.320;2023-07-31T01:25:50;5.93;;;3.90;;
7166;SDS011;3625;51.762;14.320;2023-07-31T01:28:40;4.68;;;3.90;;
7166;SDS011;3625;51.762;14.320;2023-07-31T01:31:22;5.22;;;4.15;;
7166;SDS011;3625;51.762;14.320;2023-07-31T01:33:54;4.70;;;3.60;;
7166;SDS011;3625;51.762;14.320;2023-07-31T01:36:29;7.53;;;4.53;;
7166;SDS011;3625;51.762;14.320;2023-07-31T01:38:58;6.28;;;4.60;;
7166;SDS011;3625;51.762;14.320;2023-07-31T01:41:29;5.35;;;3.83;;
7166;SDS011;3625;51.762;14.320;2023-07-31T01:43:57;4.97;;;4.18;;
7166;SDS011;3625;51.762;14.320;2023-07-31T01:46:27;6.32;;;4.03;;
7166;SDS011;3625;51.762;14.320;2023-07-31T01:48:56;5.60;;;3.55;;
7166;SDS011;3625;51.762;14.320;2023-07-31T01:51:24;8.65;;;3.75;;
7166;SDS011;3625;51.762;14.320;2023-07-31T01:53:53;4.53;;;3.38;;
7166;SDS011;3625;51.762;14.320;2023-07-31T01:56:21;6.13;;;3.78;;
7166;SDS011;3625;51.762;14.320;2023-07-31T01:58:51;4.20;;;3.15;;
7166;SDS011;3625;51.762;14.320;2023-07-31T02:01:23;5.13;;;3.60;;
7166;SDS011;3625;51.762;14.320;2023-07-31T02:03:51;4.72;;;3.42;;
7166;SDS011;3625;51.762;14.320;2023-07-31T02:06:21;5.28;;;3.25;;
7166;SDS011;3625;51.762;14.320;2023-07-31T02:08:50;3.72;;;3.17;;
7166;SDS011;3625;51.762;14.320;2023-07-31T02:11:19;6.35;;;3.22;;
7166;SDS011;3625;51.762;14.320;2023-07-31T02:13:49;4.07;;;2.90;;
7166;SDS011;3625;51.762;14.320;2023-07-31T02:16:19;5.22;;;2.97;;
7166;SDS011;3625;51.762;14.320;2023-07-31T02:18:48;7.93;;;3.20;;
7166;SDS011;3625;51.762;14.320;2023-07-31T02:21:16;5.43;;;2.60;;
7166;SDS011;3625;51.762;14.320;2023-07-31T02:23:45;5.60;;;3.13;;
7166;SDS011;3625;51.762;14.320;2023-07-31T02:26:14;6.10;;;3.20;;
7166;SDS011;3625;51.762;14.320;2023-07-31T02:28:43;6.95;;;3.30;;
7166;SDS011;3625;51.762;14.320;2023-07-31T02:31:13;4.68;;;2.75;;
7166;SDS011;3625;51.762;14.320;2023-07-31T02:33:42;4.43;;;2.67;;
7166;SDS011;3625;51.762;14.320;2023-07-31T02:36:10;6.35;;;2.97;;
7166;SDS011;3625;51.762;14.320;2023-07-31T02:38:39;3.95;;;2.80;;
7166;SDS011;3625;51.762;14.320;2023-07-31T02:41:08;6.22;;;3.15;;
7166;SDS011;3625;51.762;14.320;2023-07-31T02:43:39;4.72;;;3.30;;
7166;SDS011;3625;51.762;14.320;2023-07-31T02:46:09;3.92;;;2.90;;
7166;SDS011;3625;51.762;14.320;2023-07-31T02:48:39;3.28;;;2.70;;
7166;SDS011;3625;51.762;14.320;2023-07-31T02:51:08;4.47;;;2.53;;
7166;SDS011;3625;51.762;14.320;2023-07-31T02:53:36;4.90;;;2.55;;
7166;SDS011;3625;51.762;14.320;2023-07-31T02:56:05;3.30;;;2.53;;
7166;SDS011;3625;51.762;14.320;2023-07-31T02:58:34;3.40;;;2.47;;
7166;SDS011;3625;51.762;14.320;2023-07-31T03:01:05;5.28;;;2.72;;
7166;SDS011;3625;51.762;14.320;2023-07-31T03:03:35;3.70;;;2.50;;
7166;SDS011;3625;51.762;14.320;2023-07-31T03:06:05;2.72;;;2.38;;
7166;SDS011;3625;51.762;14.320;2023-07-31T03:08:35;3.05;;;2.25;;
7166;SDS011;3625;51.762;14.320;2023-07-31T03:11:04;4.72;;;2.60;;
7166;SDS011;3625;51.762;14.320;2023-07-31T03:13:33;3.13;;;2.50;;
7166;SDS011;3625;51.762;14.320;2023-07-31T03:16:02;2.88;;;2.13;;
7166;SDS011;3625;51.762;14.320;2023-07-31T03:18:31;3.47;;;2.22;;
7166;SDS011;3625;51.762;14.320;2023-07-31T03:20:59;4.53;;;2.90;;
7166;SDS011;3625;51.762;14.320;2023-07-31T03:23:32;7.07;;;2.67;;
7166;SDS011;3625;51.762;14.320;2023-07-31T03:26:05;4.15;;;2.30;;
7166;SDS011;3625;51.762;14.320;2023-07-31T03:28:35;6.03;;;2.47;;
7166;SDS011;3625;51.762;14.320;2023-07-31T03:31:04;5.55;;;2.60;;
7166;SDS011;3625;51.762;14.320;2023-07-31T03:33:35;3.30;;;2.70;;
7166;SDS011;3625;51.762;14.320;2023-07-31T03:36:04;3.30;;;2.30;;
7166;SDS011;3625;51.762;14.320;2023-07-31T03:38:38;6.13;;;2.40;;
7166;SDS011;3625;51.762;14.320;2023-07-31T03:41:06;4.03;;;2.63;;
7166;SDS011;3625;51.762;14.320;2023-07-31T03:43:37;6.15;;;2.90;;
7166;SDS011;3625;51.762;14.320;2023-07-31T03:46:05;3.88;;;2.70;;
7166;SDS011;3625;51.762;14.320;2023-07-31T03:48:34;4.35;;;2.35;;
7166;SDS011;3625;51.762;14.320;2023-07-31T03:51:03;3.28;;;2.60;;
7166;SDS011;3625;51.762;14.320;2023-07-31T03:53:32;5.50;;;2.58;;
7166;SDS011;3625;51.762;14.320;2023-07-31T03:56:02;2.95;;;2.47;;
7166;SDS011;3625;51.762;14.320;2023-07-31T03:58:31;3.22;;;2.55;;
7166;SDS011;3625;51.762;14.320;2023-07-31T04:00:59;5.07;;;2.38;;
7166;SDS011;3625;51.762;14.320;2023-07-31T04:03:28;5.90;;;2.33;;
7166;SDS011;3625;51.762;14.320;2023-07-31T04:05:57;3.28;;;2.40;;
7166;SDS011;3625;51.762;14.320;2023-07-31T04:08:26;4.63;;;2.40;;
7166;SDS011;3625;51.762;14.320;2023-07-31T04:10:54;4.07;;;2.33;;
7166;SDS011;3625;51.762;14.320;2023-07-31T04:13:28;3.75;;;2.30;;
7166;SDS011;3625;51.762;14.320;2023-07-31T04:15:57;5.70;;;2.25;;
7166;SDS011;3625;51.762;14.320;2023-07-31T04:18:26;4.85;;;2.50;;
7166;SDS011;3625;51.762;14.320;2023-07-31T04:20:57;4.30;;;2.20;;
7166;SDS011;3625;51.762;14.320;2023-07-31T04:23:27;3.88;;;2.58;;
7166;SDS011;3625;51.762;14.320;2023-07-31T04:25:59;3.58;;;2.40;;
7166;SDS011;3625;51.762;14.320;2023-07-31T04:28:30;4.40;;;2.10;;
7166;SDS011;3625;51.762;14.320;2023-07-31T04:30:59;5.00;;;2.20;;
7166;SDS011;3625;51.762;14.320;2023-07-31T04:33:28;4.80;;;2.22;;
7166;SDS011;3625;51.762;14.320;2023-07-31T04:35:56;2.58;;;2.10;;
7166;SDS011;3625;51.762;14.320;2023-07-31T04:38:26;2.28;;;2.08;;
7166;SDS011;3625;51.762;14.320;2023-07-31T04:40:55;5.75;;;2.40;;
7166;SDS011;3625;51.762;14.320;2023-07-31T04:43:24;6.90;;;3.00;;
7166;SDS011;3625;51.762;14.320;2023-07-31T04:46:06;2.78;;;2.00;;
7166;SDS011;3625;51.762;14.320;2023-07-31T04:48:34;3.90;;;2.10;;
7166;SDS011;3625;51.762;14.320;2023-07-31T04:51:05;3.53;;;2.38;;
7166;SDS011;3625;51.762;14.320;2023-07-31T04:53:33;3.85;;;2.20;;
7166;SDS011;3625;51.762;14.320;2023-07-31T04:56:03;3.25;;;2.33;;
7166;SDS011;3625;51.762;14.320;2023-07-31T04:58:31;3.60;;;2.22;;
7166;SDS011;3625;51.762;14.320;2023-07-31T05:01:01;3.10;;;2.25;;
7166;SDS011;3625;51.762;14.320;2023-07-31T05:03:30;5.25;;;2.10;;
7166;SDS011;3625;51.762;14.320;2023-07-31T05:05:59;4.55;;;2.53;;
7166;SDS011;3625;51.762;14.320;2023-07-31T05:08:28;3.80;;;2.25;;
7166;SDS011;3625;51.762;14.320;2023-07-31T05:10:56;4.55;;;2.13;;
7166;SDS011;3625;51.762;14.320;2023-07-31T05:13:25;4.70;;;2.42;;
7166;SDS011;3625;51.762;14.320;2023-07-31T05:15:54;3.45;;;2.10;;
7166;SDS011;3625;51.762;14.320;2023-07-31T05:18:26;2.60;;;2.13;;
7166;SDS011;3625;51.762;14.320;2023-07-31T05:20:54;5.30;;;2.30;;
7166;SDS011;3625;51.762;14.320;2023-07-31T05:23:23;3.28;;;2.08;;
7166;SDS011;3625;51.762;14.320;2023-07-31T05:25:51;4.13;;;2.33;;
7166;SDS011;3625;51.762;14.320;2023-07-31T05:28:20;3.83;;;2.30;;
7166;SDS011;3625;51.762;14.320;2023-07-31T05:30:50;2.90;;;2.25;;
7166;SDS011;3625;51.762;14.320;2023-07-31T05:33:18;4.43;;;2.20;;
7166;SDS011;3625;51.762;14.320;2023-07-31T05:35:49;3.45;;;2.08;;
7166;SDS011;3625;51.762;14.320;2023-07-31T05:38:30;3.78;;;2.15;;
7166;SDS011;3625;51.762;14.320;2023-07-31T05:40:59;3.78;;;1.90;;
7166;SDS011;3625;51.762;14.320;2023-07-31T05:43:33;5.43;;;1.95;;
7166;SDS011;3625;51.762;14.320;2023-07-31T05:46:03;4.20;;;2.40;;
7166;SDS011;3625;51.762;14.320;2023-07-31T05:48:36;3.15;;;1.90;;
7166;SDS011;3625;51.762;14.320;2023-07-31T05:51:12;4.07;;;2.40;;
7166;SDS011;3625;51.762;14.320;2023-07-31T05:53:55;3.50;;;2.35;;
7166;SDS011;3625;51.762;14.320;2023-07-31T05:56:27;3.75;;;2.05;;
7166;SDS011;3625;51.762;14.320;2023-07-31T05:58:58;5.22;;;2.47;;
7166;SDS011;3625;51.762;14.320;2023-07-31T06:01:31;4.57;;;2.47;;
7166;SDS011;3625;51.762;14.320;2023-07-31T06:04:00;3.55;;;2.10;;
7166;SDS011;3625;51.762;14.320;2023-07-31T06:06:31;3.05;;;2.05;;
7166;SDS011;3625;51.762;14.320;2023-07-31T06:08:59;3.75;;;2.13;;
7166;SDS011;3625;51.762;14.320;2023-07-31T06:11:29;3.63;;;2.22;;
7166;SDS011;3625;51.762;14.320;2023-07-31T06:14:00;4.25;;;2.40;;
7166;SDS011;3625;51.762;14.320;2023-07-31T06:16:29;4.43;;;2.42;;
7166;SDS011;3625;51.762;14.320;2023-07-31T06:18:58;4.57;;;2.50;;
7166;SDS011;3625;51.762;14.320;2023-07-31T06:21:27;2.15;;;1.98;;
7166;SDS011;3625;51.762;14.320;2023-07-31T06:23:57;5.88;;;2.80;;
7166;SDS011;3625;51.762;14.320;2023-07-31T06:26:26;11.77;;;2.20;;
7166;SDS011;3625;51.762;14.320;2023-07-31T06:28:55;2.50;;;2.20;;
7166;SDS011;3625;51.762;14.320;2023-07-31T06:31:23;4.80;;;2.55;;
7166;SDS011;3625;51.762;14.320;2023-07-31T06:33:52;3.00;;;2.10;;
7166;SDS011;3625;51.762;14.320;2023-07-31T06:36:21;2.72;;;2.10;;
7166;SDS011;3625;51.762;14.320;2023-07-31T06:38:50;3.30;;;2.05;;
7166;SDS011;3625;51.762;14.320;2023-07-31T06:41:20;2.20;;;2.00;;
7166;SDS011;3625;51.762;14.320;2023-07-31T06:43:53;4.93;;;2.22;;
7166;SDS011;3625;51.762;14.320;2023-07-31T06:46:25;4.45;;;2.33;;
7166;SDS011;3625;51.762;14.320;2023-07-31T06:48:55;4.50;;;2.25;;
7166;SDS011;3625;51.762;14.320;2023-07-31T06:51:23;4.57;;;2.20;;
7166;SDS011;3625;51.762;14.320;2023-07-31T06:53:52;4.40;;;1.98;;
7166;SDS011;3625;51.762;14.320;2023-07-31T06:56:22;4.32;;;2.33;;
7166;SDS011;3625;51.762;14.320;2023-07-31T06:58:52;3.47;;;2.10;;
7166;SDS011;3625;51.762;14.320;2023-07-31T07:01:21;2.88;;;2.00;;
7166;SDS011;3625;51.762;14.320;2023-07-31T07:03:50;3.65;;;2.20;;
7166;SDS011;3625;51.762;14.320;2023-07-31T07:06:18;4.80;;;2.03;;
7166;SDS011;3625;51.762;14.320;2023-07-31T07:08:48;3.45;;;2.55;;
7166;SDS011;3625;51.762;14.320;2023-07-31T07:11:17;3.67;;;2.30;;
7166;SDS011;3625;51.762;14.320;2023-07-31T07:13:49;2.95;;;2.38;;
7166;SDS011;3625;51.762;14.320;2023-07-31T07:16:21;3.85;;;2.28;;
7166;SDS011;3625;51.762;14.320;2023-07-31T07:18:50;4.57;;;2.40;;
7166;SDS011;3625;51.762;14.320;2023-07-31T07:21:30;4.93;;;2.40;;
7166;SDS011;3625;51.762;14.320;2023-07-31T07:24:03;5.57;;;2.45;;
7166;SDS011;3625;51.762;14.320;2023-07-31T07:26:35;4.28;;;2.42;;
7166;SDS011;3625;51.762;14.320;2023-07-31T07:29:09;3.70;;;2.13;;
7166;SDS011;3625;51.762;14.320;2023-07-31T07:31:43;3.67;;;1.98;;
7166;SDS011;3625;51.762;14.320;2023-07-31T07:34:24;7.63;;;3.00;;
7166;SDS011;3625;51.762;14.320;2023-07-31T07:37:00;2.80;;;2.47;;
7166;SDS011;3625;51.762;14.320;2023-07-31T07:39:32;5.50;;;2.63;;
7166;SDS011;3625;51.762;14.320;2023-07-31T07:42:03;3.97;;;2.33;;
7166;SDS011;3625;51.762;14.320;2023-07-31T07:44:33;4.55;;;2.40;;
7166;SDS011;3625;51.762;14.320;2023-07-31T07:47:02;3.42;;;2.50;;
7166;SDS011;3625;51.762;14.320;2023-07-31T07:49:34;5.93;;;2.22;;
7166;SDS011;3625;51.762;14.320;2023-07-31T07:52:04;3.97;;;2.70;;
7166;SDS011;3625;51.762;14.320;2023-07-31T07:54:35;3.65;;;2.50;;
7166;SDS011;3625;51.762;14.320;2023-07-31T07:57:04;3.08;;;2.50;;
7166;SDS011;3625;51.762;14.320;2023-07-31T07:59:38;3.10;;;2.20;;
7166;SDS011;3625;51.762;14.320;2023-07-31T08:02:15;3.60;;;2.00;;
7166;SDS011;3625;51.762;14.320;2023-07-31T08:04:44;2.95;;;2.22;;
7166;SDS011;3625;51.762;14.320;2023-07-31T08:07:13;3.30;;;2.60;;
7166;SDS011;3625;51.762;14.320;2023-07-31T08:09:42;6.07;;;2.70;;
7166;SDS011;3625;51.762;14.320;2023-07-31T08:12:13;3.33;;;2.03;;
7166;SDS011;3625;51.762;14.320;2023-07-31T08:14:44;2.63;;;2.28;;
7166;SDS011;3625;51.762;14.320;2023-07-31T08:17:15;3.78;;;2.33;;
7166;SDS011;3625;51.762;14.320;2023-07-31T08:19:43;3.05;;;2.53;;
7166;SDS011;3625;51.762;14.320;2023-07-31T08:22:12;2.60;;;2.40;;
7166;SDS011;3625;51.762;14.320;2023-07-31T08:24:44;3.90;;;2.53;;
7166;SDS011;3625;51.762;14.320;2023-07-31T08:27:17;4.25;;;2.40;;
7166;SDS011;3625;51.762;14.320;2023-07-31T08:29:49;3.75;;;2.47;;
7166;SDS011;3625;51.762;14.320;2023-07-31T08:32:27;2.97;;;2.55;;
7166;SDS011;3625;51.762;14.320;2023-07-31T08:35:00;3.58;;;2.20;;
7166;SDS011;3625;51.762;14.320;2023-07-31T08:37:29;2.55;;;2.33;;
7166;SDS011;3625;51.762;14.320;2023-07-31T08:40:03;3.22;;;2.45;;
7166;SDS011;3625;51.762;14.320;2023-07-31T08:42:42;4.07;;;2.38;;
7166;SDS011;3625;51.762;14.320;2023-07-31T08:45:19;4.10;;;2.78;;
7166;SDS011;3625;51.762;14.320;2023-07-31T08:47:51;4.00;;;2.80;;
7166;SDS011;3625;51.762;14.320;2023-07-31T08:50:26;4.57;;;2.85;;
7166;SDS011;3625;51.762;14.320;2023-07-31T08:52:58;4.07;;;2.58;;
7166;SDS011;3625;51.762;14.320;2023-07-31T08:55:27;4.72;;;2.83;;
7166;SDS011;3625;51.762;14.320;2023-07-31T08:58:07;4.80;;;2.50;;
7166;SDS011;3625;51.762;14.320;2023-07-31T09:00:41;5.18;;;2.72;;
7166;SDS011;3625;51.762;14.320;2023-07-31T09:03:17;6.70;;;2.83;;
7166;SDS011;3625;51.762;14.320;2023-07-31T09:05:47;3.30;;;2.55;;
7166;SDS011;3625;51.762;14.320;2023-07-31T09:08:20;3.35;;;2.22;;
7166;SDS011;3625;51.762;14.320;2023-07-31T09:10:49;4.57;;;2.50;;
7166;SDS011;3625;51.762;14.320;2023-07-31T09:13:20;5.57;;;2.72;;
7166;SDS011;3625;51.762;14.320;2023-07-31T09:15:53;3.75;;;2.40;;
7166;SDS011;3625;51.762;14.320;2023-07-31T09:18:26;4.82;;;3.50;;
7166;SDS011;3625;51.762;14.320;2023-07-31T09:21:02;4.65;;;3.55;;
7166;SDS011;3625;51.762;14.320;2023-07-31T09:23:40;3.63;;;2.60;;
7166;SDS011;3625;51.762;14.320;2023-07-31T09:26:28;3.78;;;2.22;;
7166;SDS011;3625;51.762;14.320;2023-07-31T09:29:05;4.72;;;2.28;;
7166;SDS011;3625;51.762;14.320;2023-07-31T09:31:54;4.43;;;2.42;;
7166;SDS011;3625;51.762;14.320;2023-07-31T09:34:37;4.28;;;2.40;;
7166;SDS011;3625;51.762;14.320;2023-07-31T09:37:06;6.22;;;2.95;;
7166;SDS011;3625;51.762;14.320;2023-07-31T09:39:45;3.97;;;2.20;;
7166;SDS011;3625;51.762;14.320;2023-07-31T09:42:14;3.30;;;1.95;;
7166;SDS011;3625;51.762;14.320;2023-07-31T09:45:06;2.42;;;2.05;;
7166;SDS011;3625;51.762;14.320;2023-07-31T09:47:48;2.50;;;2.13;;
7166;SDS011;3625;51.762;14.320;2023-07-31T09:50:17;4.18;;;2.40;;
7166;SDS011;3625;51.762;14.320;2023-07-31T09:52:51;4.38;;;2.72;;
7166;SDS011;3625;51.762;14.320;2023-07-31T09:55:24;4.65;;;2.83;;
7166;SDS011;3625;51.762;14.320;2023-07-31T09:57:54;3.33;;;2.22;;
7166;SDS011;3625;51.762;14.320;2023-07-31T10:00:25;4.47;;;2.30;;
7166;SDS011;3625;51.762;14.320;2023-07-31T10:02:57;2.28;;;2.08;;
7166;SDS011;3625;51.762;14.320;2023-07-31T10:05:29;3.42;;;2.47;;
7166;SDS011;3625;51.762;14.320;2023-07-31T10:08:02;3.50;;;2.10;;
7166;SDS011;3625;51.762;14.320;2023-07-31T10:10:39;2.20;;;1.98;;
7166;SDS011;3625;51.762;14.320;2023-07-31T10:13:13;3.60;;;2.00;;
7166;SDS011;3625;51.762;14.320;2023-07-31T10:15:43;3.00;;;2.30;;
7166;SDS011;3625;51.762;14.320;2023-07-31T10:18:13;2.60;;;2.08;;
7166;SDS011;3625;51.762;14.320;2023-07-31T10:20:44;3.63;;;2.20;;
7166;SDS011;3625;51.762;14.320;2023-07-31T10:23:14;2.67;;;1.92;;
7166;SDS011;3625;51.762;14.320;2023-07-31T10:25:44;2.55;;;2.00;;
7166;SDS011;3625;51.762;14.320;2023-07-31T10:28:21;2.33;;;1.90;;
7166;SDS011;3625;51.762;14.320;2023-07-31T10:31:11;3.60;;;2.13;;
7166;SDS011;3625;51.762;14.320;2023-07-31T10:33:41;2.83;;;1.98;;
7166;SDS011;3625;51.762;14.320;2023-07-31T10:36:14;4.20;;;2.13;;
7166;SDS011;3625;51.762;14.320;2023-07-31T10:38:48;3.30;;;2.65;;
7166;SDS011;3625;51.762;14.320;2023-07-31T10:41:20;4.07;;;2.25;;
7166;SDS011;3625;51.762;14.320;2023-07-31T10:43:57;2.30;;;2.10;;
7166;SDS011;3625;51.762;14.320;2023-07-31T10:46:29;4.10;;;2.60;;
7166;SDS011;3625;51.762;14.320;2023-07-31T10:49:00;4.20;;;2.55;;
7166;SDS011;3625;51.762;14.320;2023-07-31T10:51:34;5.55;;;2.72;;
7166;SDS011;3625;51.762;14.320;2023-07-31T10:54:11;3.28;;;2.10;;
7166;SDS011;3625;51.762;14.320;2023-07-31T10:56:49;4.38;;;2.25;;
7166;SDS011;3625;51.762;14.320;2023-07-31T10:59:25;5.88;;;2.42;;
7166;SDS011;3625;51.762;14.320;2023-07-31T11:01:56;3.38;;;2.17;;
7166;SDS011;3625;51.762;14.320;2023-07-31T11:04:26;3.30;;;2.25;;
7166;SDS011;3625;51.762;14.320;2023-07-31T11:06:58;3.22;;;2.15;;
7166;SDS011;3625;51.762;14.320;2023-07-31T11:09:32;3.38;;;2.17;;
7166;SDS011;3625;51.762;14.320;2023-07-31T11:12:02;4.60;;;2.40;;
7166;SDS011;3625;51.762;14.320;2023-07-31T11:14:31;4.75;;;1.95;;
7166;SDS011;3625;51.762;14.320;2023-07-31T11:17:08;4.70;;;2.13;;
7166;SDS011;3625;51.762;14.320;2023-07-31T11:19:43;4.05;;;2.10;;
7166;SDS011;3625;51.762;14.320;2023-07-31T11:22:14;5.18;;;2.28;;
7166;SDS011;3625;51.762;14.320;2023-07-31T11:24:44;4.55;;;2.45;;
7166;SDS011;3625;51.762;14.320;2023-07-31T11:27:14;3.03;;;2.17;;
7166;SDS011;3625;51.762;14.320;2023-07-31T11:29:43;3.47;;;2.20;;
7166;SDS011;3625;51.762;14.320;2023-07-31T11:32:15;2.53;;;2.33;;
7166;SDS011;3625;51.762;14.320;2023-07-31T11:34:52;3.33;;;2.35;;
7166;SDS011;3625;51.762;14.320;2023-07-31T11:37:22;4.55;;;2.03;;
7166;SDS011;3625;51.762;14.320;2023-07-31T11:40:00;4.18;;;2.72;;
7166;SDS011;3625;51.762;14.320;2023-07-31T11:42:33;2.25;;;2.05;;
7166;SDS011;3625;51.762;14.320;2023-07-31T11:45:03;3.58;;;2.83;;
7166;SDS011;3625;51.762;14.320;2023-07-31T11:47:36;4.47;;;2.67;;
7166;SDS011;3625;51.762;14.320;2023-07-31T11:50:10;2.78;;;2.20;;
7166;SDS011;3625;51.762;14.320;2023-07-31T11:52:42;3.47;;;2.10;;
7166;SDS011;3625;51.762;14.320;2023-07-31T11:55:15;2.78;;;2.13;;
7166;SDS011;3625;51.762;14.320;2023-07-31T11:57:52;2.85;;;2.10;;
7166;SDS011;3625;51.762;14.320;2023-07-31T12:00:24;3.08;;;2.30;;
7166;SDS011;3625;51.762;14.320;2023-07-31T12:02:53;3.20;;;2.20;;
7166;SDS011;3625;51.762;14.320;2023-07-31T12:05:23;5.22;;;2.47;;
7166;SDS011;3625;51.762;14.320;2023-07-31T12:07:53;2.83;;;2.08;;
7166;SDS011;3625;51.762;14.320;2023-07-31T12:10:27;4.57;;;3.42;;
7166;SDS011;3625;51.762;14.320;2023-07-31T12:12:59;3.08;;;2.30;;
7166;SDS011;3625;51.762;14.320;2023-07-31T12:15:37;2.97;;;2.15;;
7166;SDS011;3625;51.762;14.320;2023-07-31T12:18:09;3.45;;;2.28;;
7166;SDS011;3625;51.762;14.320;2023-07-31T12:20:43;4.20;;;2.50;;
7166;SDS011;3625;51.762;14.320;2023-07-31T12:23:14;2.92;;;2.38;;
7166;SDS011;3625;51.762;14.320;2023-07-31T12:25:45;3.80;;;2.72;;
7166;SDS011;3625;51.762;14.320;2023-07-31T12:28:14;4.22;;;2.75;;
7166;SDS011;3625;51.762;14.320;2023-07-31T12:30:43;4.20;;;2.58;;
7166;SDS011;3625;51.762;14.320;2023-07-31T12:33:13;4.10;;;2.20;;
7166;SDS011;3625;51.762;14.320;2023-07-31T12:35:45;2.42;;;2.08;;
7166;SDS011;3625;51.762;14.320;2023-07-31T12:38:15;3.22;;;2.40;;
7166;SDS011;3625;51.762;14.320;2023-07-31T12:40:44;2.63;;;2.20;;
7166;SDS011;3625;51.762;14.320;2023-07-31T12:43:13;2.50;;;1.98;;
7166;SDS011;3625;51.762;14.320;2023-07-31T12:45:41;3.95;;;2.20;;
7166;SDS011;3625;51.762;14.320;2023-07-31T12:48:10;3.90;;;2.40;;
7166;SDS011;3625;51.762;14.320;2023-07-31T12:50:39;3.15;;;2.30;;
7166;SDS011;3625;51.762;14.320;2023-07-31T12:53:09;4.63;;;2.17;;
7166;SDS011;3625;51.762;14.320;2023-07-31T12:55:37;3.40;;;2.45;;
7166;SDS011;3625;51.762;14.320;2023-07-31T12:58:06;3.35;;;2.20;;
7166;SDS011;3625;51.762;14.320;2023-07-31T13:00:38;2.95;;;2.22;;
7166;SDS011;3625;51.762;14.320;2023-07-31T13:03:06;3.55;;;2.50;;
7166;SDS011;3625;51.762;14.320;2023-07-31T13:05:35;2.28;;;2.00;;
7166;SDS011;3625;51.762;14.320;2023-07-31T13:08:04;3.80;;;2.25;;
7166;SDS011;3625;51.762;14.320;2023-07-31T13:10:34;2.92;;;1.92;;
7166;SDS011;3625;51.762;14.320;2023-07-31T13:13:03;2.63;;;2.20;;
7166;SDS011;3625;51.762;14.320;2023-07-31T13:15:31;3.00;;;2.35;;
7166;SDS011;3625;51.762;14.320;2023-07-31T13:18:00;4.20;;;2.20;;
7166;SDS011;3625;51.762;14.320;2023-07-31T13:20:29;4.15;;;2.20;;
7166;SDS011;3625;51.762;14.320;2023-07-31T13:22:58;4.57;;;2.58;;
7166;SDS011;3625;51.762;14.320;2023-07-31T13:25:27;2.42;;;2.22;;
7166;SDS011;3625;51.762;14.320;2023-07-31T13:27:58;3.03;;;2.15;;
7166;SDS011;3625;51.762;14.320;2023-07-31T13:30:29;3.58;;;2.10;;
7166;SDS011;3625;51.762;14.320;2023-07-31T13:32:57;2.13;;;1.92;;
7166;SDS011;3625;51.762;14.320;2023-07-31T13:35:26;3.75;;;2.50;;
7166;SDS011;3625;51.762;14.320;2023-07-31T13:37:55;2.40;;;2.20;;
7166;SDS011;3625;51.762;14.320;2023-07-31T13:40:24;2.85;;;2.33;;
7166;SDS011;3625;51.762;14.320;2023-07-31T13:42:53;2.80;;;2.33;;
7166;SDS011;3625;51.762;14.320;2023-07-31T13:45:23;2.15;;;1.92;;
7166;SDS011;3625;51.762;14.320;2023-07-31T13:47:52;3.03;;;2.03;;
7166;SDS011;3625;51.762;14.320;2023-07-31T13:50:21;2.78;;;2.45;;
7166;SDS011;3625;51.762;14.320;2023-07-31T13:52:49;2.95;;;2.47;;
7166;SDS011;3625;51.762;14.320;2023-07-31T13:55:18;3.28;;;2.10;;
7166;SDS011;3625;51.762;14.320;2023-07-31T13:57:47;3.55;;;2.10;;
7166;SDS011;3625;51.762;14.320;2023-07-31T14:00:16;2.50;;;1.90;;
7166;SDS011;3625;51.762;14.320;2023-07-31T14:02:48;3.30;;;2.20;;
7166;SDS011;3625;51.762;14.320;2023-07-31T14:05:17;2.83;;;2.17;;
7166;SDS011;3625;51.762;14.320;2023-07-31T14:07:47;3.03;;;2.30;;
7166;SDS011;3625;51.762;14.320;2023-07-31T14:10:15;2.85;;;1.92;;
7166;SDS011;3625;51.762;14.320;2023-07-31T14:12:44;3.53;;;2.63;;
7166;SDS011;3625;51.762;14.320;2023-07-31T14:15:13;3.08;;;2.65;;
7166;SDS011;3625;51.762;14.320;2023-07-31T14:17:42;2.42;;;2.22;;
7166;SDS011;3625;51.762;14.320;2023-07-31T14:20:13;2.42;;;2.20;;
7166;SDS011;3625;51.762;14.320;2023-07-31T14:22:42;6.10;;;2.58;;
7166;SDS011;3625;51.762;14.320;2023-07-31T14:25:13;2.80;;;2.17;;
7166;SDS011;3625;51.762;14.320;2023-07-31T14:27:41;2.45;;;2.25;;
7166;SDS011;3625;51.762;14.320;2023-07-31T14:30:10;3.63;;;2.20;;
7166;SDS011;3625;51.762;14.320;2023-07-31T14:32:39;3.10;;;2.20;;
7166;SDS011;3625;51.762;14.320;2023-07-31T14:35:08;2.65;;;2.40;;
7166;SDS011;3625;51.762;14.320;2023-07-31T14:37:38;3.60;;;2.30;;
7166;SDS011;3625;51.762;14.320;2023-07-31T14:40:08;4.05;;;2.78;;
7166;SDS011;3625;51.762;14.320;2023-07-31T14:42:39;3.72;;;2.35;;
7166;SDS011;3625;51.762;14.320;2023-07-31T14:45:08;2.85;;;2.20;;
7166;SDS011;3625;51.762;14.320;2023-07-31T14:47:38;2.22;;;2.03;;
7166;SDS011;3625;51.762;14.320;2023-07-31T14:50:08;2.55;;;2.35;;
7166;SDS011;3625;51.762;14.320;2023-07-31T14:52:39;3.90;;;2.47;;
7166;SDS011;3625;51.762;14.320;2023-07-31T14:55:07;3.40;;;2.58;;
7166;SDS011;3625;51.762;14.320;2023-07-31T14:57:36;3.45;;;2.75;;
7166;SDS011;3625;51.762;14.320;2023-07-31T15:00:08;2.72;;;2.30;;
7166;SDS011;3625;51.762;14.320;2023-07-31T15:02:38;4.68;;;2.50;;
7166;SDS011;3625;51.762;14.320;2023-07-31T15:05:08;3.63;;;2.20;;
7166;SDS011;3625;51.762;14.320;2023-07-31T15:07:36;2.80;;;2.25;;
7166;SDS011;3625;51.762;14.320;2023-07-31T15:10:07;3.75;;;2.35;;
7166;SDS011;3625;51.762;14.320;2023-07-31T15:12:39;4.82;;;2.60;;
7166;SDS011;3625;51.762;14.320;2023-07-31T15:15:09;4.22;;;2.97;;
7166;SDS011;3625;51.762;14.320;2023-07-31T15:17:38;3.80;;;2.60;;
7166;SDS011;3625;51.762;14.320;2023-07-31T15:20:10;3.40;;;2.65;;
7166;SDS011;3625;51.762;14.320;2023-07-31T15:22:40;2.45;;;2.15;;
7166;SDS011;3625;51.762;14.320;2023-07-31T15:25:10;2.88;;;2.53;;